createdAt,value
2022-09-09T00:00:41.288Z,1.05
2022-09-09T00:04:00.598Z,0.98
2022-09-09T00:07:23.019Z,1.15
2022-09-09T00:10:50.291Z,1.13
2022-09-09T00:13:58.331Z,0.98
2022-09-09T00:17:13.161Z,0.90
2022-09-09T00:20:35.909Z,1.08
2022-09-09T00:23:55.797Z,1.33
2022-09-09T00:27:17.300Z,1.00
2022-09-09T00:30:26.040Z,0.95
2022-09-09T00:33:32.395Z,0.90
2022-09-09T00:36:38.963Z,0.57
2022-09-09T00:39:50.641Z,0.63
2022-09-09T00:43:33.509Z,1.58
2022-09-09T00:46:51.330Z,1.13
2022-09-09T00:50:04.482Z,1.35
2022-09-09T00:53:20.991Z,1.50
2022-09-09T00:57:14.274Z,1.10
2022-09-09T01:00:22.548Z,0.70
2022-09-09T01:03:55.363Z,0.80
2022-09-09T01:07:15.419Z,1.38
2022-09-09T01:10:47.173Z,0.98
2022-09-09T01:14:21.570Z,1.10
2022-09-09T01:17:47.326Z,0.68
2022-09-09T01:21:15.705Z,1.23
2022-09-09T01:24:44.793Z,0.93
2022-09-09T01:28:03.101Z,1.02
2022-09-09T01:31:10.209Z,1.00
2022-09-09T01:34:21.936Z,1.40
2022-09-09T01:37:26.969Z,1.33
2022-09-09T01:40:31.755Z,1.65
2022-09-09T01:43:36.550Z,1.42
2022-09-09T01:46:41.441Z,1.00
2022-09-09T01:49:52.577Z,1.67
2022-09-09T01:53:03.550Z,0.77
2022-09-09T01:56:24.574Z,0.65
2022-09-09T01:59:51.269Z,1.25
2022-09-09T02:03:09.779Z,0.70
2022-09-09T02:06:36.309Z,1.10
2022-09-09T02:10:37.073Z,0.77
2022-09-09T02:14:03.709Z,1.05
2022-09-09T02:17:14.840Z,0.95
2022-09-09T02:20:38.804Z,1.92
2022-09-09T02:23:45.577Z,1.20
2022-09-09T02:26:56.532Z,0.98
2022-09-09T02:30:03.487Z,0.80
2022-09-09T02:33:20.227Z,1.63
2022-09-09T02:36:34.486Z,1.60
2022-09-09T02:39:39.203Z,1.30
2022-09-09T02:42:49.351Z,1.08
2022-09-09T02:46:26.423Z,1.88
2022-09-09T02:49:56.793Z,1.30
2022-09-09T02:53:29.296Z,1.45
2022-09-09T02:56:43.113Z,1.80
2022-09-09T02:59:50.965Z,0.88
2022-09-09T03:02:56.292Z,1.70
2022-09-09T03:06:01.256Z,0.80
2022-09-09T03:09:06.764Z,1.13
2022-09-09T03:12:12.504Z,1.52
2022-09-09T03:15:18.364Z,1.60
2022-09-09T03:18:24.173Z,2.25
2022-09-09T03:21:31.442Z,1.15
2022-09-09T03:24:36.118Z,1.30
2022-09-09T03:27:42.709Z,1.02
2022-09-09T03:30:50.122Z,1.45
2022-09-09T03:33:55.204Z,2.08
2022-09-09T03:37:00.172Z,1.23
2022-09-09T03:40:07.708Z,0.68
2022-09-09T03:43:12.545Z,1.30
2022-09-09T03:46:17.421Z,0.88
2022-09-09T03:49:23.195Z,1.08
2022-09-09T03:52:28.450Z,1.52
2022-09-09T03:55:34.164Z,0.90
2022-09-09T03:58:39.541Z,1.00
2022-09-09T04:01:46.898Z,1.88
2022-09-09T04:04:51.446Z,1.10
2022-09-09T04:07:55.676Z,0.73
2022-09-09T04:11:03.317Z,1.30
2022-09-09T04:14:08.314Z,1.55
2022-09-09T04:17:13.061Z,2.05
2022-09-09T04:20:17.877Z,1.40
2022-09-09T04:23:25.073Z,1.48
2022-09-09T04:26:29.762Z,1.27
2022-09-09T04:29:34.645Z,1.20
2022-09-09T04:32:39.592Z,1.77
2022-09-09T04:35:50.351Z,1.58
2022-09-09T04:38:56.991Z,2.10
2022-09-09T04:42:01.640Z,1.58
2022-09-09T04:45:07.884Z,1.60
2022-09-09T04:48:12.922Z,1.65
2022-09-09T04:51:18.218Z,1.83
2022-09-09T04:54:24.870Z,1.40
2022-09-09T04:57:29.787Z,0.88
2022-09-09T05:00:38.416Z,1.45
2022-09-09T05:03:46.776Z,1.67
2022-09-09T05:06:54.801Z,0.85
2022-09-09T05:09:59.311Z,1.30
2022-09-09T05:13:05.211Z,1.50
2022-09-09T05:16:12.268Z,1.38
2022-09-09T05:19:20.072Z,1.52
2022-09-09T05:22:28.928Z,1.55
2022-09-09T05:25:33.483Z,1.27
2022-09-09T05:28:38.030Z,1.15
2022-09-09T05:31:42.790Z,1.75
2022-09-09T05:34:53.893Z,1.58
2022-09-09T05:38:01.544Z,1.90
2022-09-09T05:41:07.006Z,1.98
2022-09-09T05:44:11.848Z,1.33
2022-09-09T05:47:18.328Z,1.13
2022-09-09T05:50:23.268Z,2.60
2022-09-09T05:53:33.370Z,1.83
2022-09-09T05:56:38.736Z,1.13
2022-09-09T05:59:45.537Z,1.33
2022-09-09T06:02:54.718Z,1.50
2022-09-09T06:06:02.583Z,1.48
2022-09-09T06:09:13.288Z,1.23
2022-09-09T06:12:20.155Z,1.00
2022-09-09T06:15:25.191Z,1.65
2022-09-09T06:18:30.653Z,2.70
2022-09-09T06:21:38.265Z,1.13
2022-09-09T06:24:45.865Z,1.83
2022-09-09T06:27:50.848Z,1.52
2022-09-09T06:31:04.851Z,2.55
2022-09-09T06:34:10.504Z,1.75
2022-09-09T06:37:19.698Z,1.23
2022-09-09T06:40:27.430Z,1.33
2022-09-09T06:43:32.280Z,2.55
2022-09-09T06:46:39.144Z,2.40
2022-09-09T06:49:48.188Z,0.95
2022-09-09T06:52:53.466Z,4.03
2022-09-09T06:55:58.412Z,1.73
2022-09-09T06:59:06.824Z,1.73
2022-09-09T07:02:12.231Z,1.30
2022-09-09T07:05:17.653Z,2.47
2022-09-09T07:08:25.808Z,1.95
2022-09-09T07:11:38.387Z,3.50
2022-09-09T07:14:43.458Z,4.30
2022-09-09T07:17:48.831Z,1.83
2022-09-09T07:20:57.966Z,2.20
2022-09-09T07:24:06.166Z,1.73
2022-09-09T07:27:11.465Z,3.67
2022-09-09T07:30:21.904Z,1.58
2022-09-09T07:33:31.548Z,3.40
2022-09-09T07:36:39.566Z,2.03
2022-09-09T07:39:46.274Z,2.10
2022-09-09T07:42:51.711Z,3.03
2022-09-09T07:46:02.420Z,2.05
2022-09-09T07:49:07.129Z,2.28
2022-09-09T07:52:14.902Z,2.65
2022-09-09T07:55:27.550Z,2.25
2022-09-09T07:58:37.689Z,2.22
2022-09-09T08:01:51.097Z,2.20
2022-09-09T08:04:58.039Z,2.90
2022-09-09T08:08:04.707Z,1.73
2022-09-09T08:11:13.870Z,2.67
2022-09-09T08:14:18.965Z,2.08
2022-09-09T08:17:25.359Z,1.83
2022-09-09T08:20:30.145Z,2.05
2022-09-09T08:23:36.170Z,1.88
2022-09-09T08:26:48.386Z,3.55
2022-09-09T08:29:54.192Z,2.60
2022-09-09T08:33:00.257Z,1.63
2022-09-09T08:36:07.166Z,4.60
2022-09-09T08:39:15.831Z,2.65
2022-09-09T08:42:47.971Z,4.53
2022-09-09T08:46:07.709Z,3.45
2022-09-09T08:49:58.067Z,2.25
2022-09-09T08:53:08.874Z,3.05
2022-09-09T08:56:20.134Z,2.08
2022-09-09T08:59:27.571Z,1.65
2022-09-09T09:02:59.754Z,1.63
2022-09-09T09:06:13.504Z,2.92
2022-09-09T09:09:33.122Z,1.73
2022-09-09T09:12:44.339Z,2.38
2022-09-09T09:16:01.147Z,2.35
2022-09-09T09:19:09.330Z,3.70
2022-09-09T09:22:45.437Z,3.15
2022-09-09T09:26:00.508Z,2.05
2022-09-09T09:29:16.498Z,3.80
2022-09-09T09:32:23.707Z,2.00
2022-09-09T09:35:29.047Z,1.70
2022-09-09T09:42:20.331Z,6.45
2022-09-09T09:45:35.280Z,2.92
2022-09-09T09:51:48.578Z,2.47
2022-09-09T09:54:55.398Z,4.05
2022-09-09T09:58:17.864Z,2.05
2022-09-09T10:01:35.032Z,3.47
2022-09-09T10:04:43.076Z,4.10
2022-09-09T10:07:49.010Z,4.13
2022-09-09T10:11:43.881Z,7.97
2022-09-09T10:18:48.777Z,4.05
2022-09-09T10:22:27.761Z,4.35
2022-09-09T10:25:59.912Z,2.47
2022-09-09T10:29:35.331Z,3.55
2022-09-09T10:36:23.354Z,2.92
2022-09-09T10:39:44.061Z,3.85
2022-09-09T10:42:49.195Z,2.90
2022-09-09T10:46:23.881Z,4.97
2022-09-09T10:50:38.100Z,4.30
2022-09-09T10:54:02.516Z,4.60
2022-09-09T10:57:26.574Z,4.97
2022-09-09T11:00:47.294Z,2.78
2022-09-09T11:04:10.505Z,4.32
2022-09-09T11:07:57.641Z,2.13
2022-09-09T11:11:06.045Z,5.28
2022-09-09T11:14:20.897Z,7.10
2022-09-09T11:17:34.760Z,3.75
2022-09-09T11:23:53.952Z,5.38
2022-09-09T11:27:08.181Z,5.78
2022-09-09T11:30:54.787Z,6.20
2022-09-09T11:34:13.613Z,4.10
2022-09-09T11:37:48.921Z,2.72
2022-09-09T11:41:03.460Z,2.35
2022-09-09T11:44:31.530Z,4.53
2022-09-09T11:47:35.906Z,4.57
2022-09-09T11:50:41.243Z,2.47
2022-09-09T11:54:04.049Z,2.72
2022-09-09T11:57:43.098Z,2.87
2022-09-09T12:00:51.065Z,5.22
2022-09-09T12:04:18.638Z,2.45
2022-09-09T12:07:56.558Z,3.15
2022-09-09T12:11:02.572Z,3.10
2022-09-09T12:14:44.161Z,4.18
2022-09-09T12:17:55.904Z,3.28
2022-09-09T12:21:26.276Z,6.88
2022-09-09T12:24:36.187Z,2.78
2022-09-09T12:28:05.186Z,4.13
2022-09-09T12:31:19.129Z,2.78
2022-09-09T12:34:43.320Z,3.42
2022-09-09T12:38:02.420Z,3.65
2022-09-09T12:41:20.504Z,3.13
2022-09-09T12:44:30.718Z,3.38
2022-09-09T12:48:09.533Z,3.05
2022-09-09T12:51:29.288Z,3.42
2022-09-09T12:54:37.478Z,3.50
2022-09-09T12:57:44.043Z,3.83
2022-09-09T13:00:57.143Z,2.67
2022-09-09T13:04:02.698Z,2.72
2022-09-09T13:07:11.051Z,3.15
2022-09-09T13:10:36.257Z,3.17
2022-09-09T13:13:54.644Z,2.03
2022-09-09T13:17:07.435Z,2.75
2022-09-09T13:20:20.681Z,1.90
2022-09-09T13:23:32.091Z,2.28
2022-09-09T13:26:37.298Z,3.67
2022-09-09T13:29:55.934Z,2.10
2022-09-09T13:33:21.394Z,2.05
2022-09-09T13:36:32.342Z,1.20
2022-09-09T13:39:38.666Z,2.10
2022-09-09T13:42:43.744Z,3.50
2022-09-09T13:46:02.698Z,2.92
2022-09-09T13:49:10.298Z,2.95
2022-09-09T13:52:20.351Z,1.67
2022-09-09T13:55:28.694Z,3.25
2022-09-09T13:58:33.182Z,3.17
2022-09-09T14:01:38.555Z,2.30
2022-09-09T14:04:46.817Z,5.55
2022-09-09T14:07:53.361Z,2.20
2022-09-09T14:11:00.848Z,3.22
2022-09-09T14:14:06.231Z,3.75
2022-09-09T14:17:11.548Z,7.72
2022-09-09T14:20:18.703Z,2.92
2022-09-09T14:23:23.155Z,3.05
2022-09-09T14:26:29.848Z,2.55
2022-09-09T14:29:34.451Z,1.70
2022-09-09T14:32:39.165Z,3.13
2022-09-09T14:35:45.204Z,2.70
2022-09-09T14:38:50.178Z,2.47
2022-09-09T14:41:55.071Z,2.83
2022-09-09T14:44:59.349Z,1.38
2022-09-09T14:48:04.824Z,2.85
2022-09-09T14:51:24.500Z,3.28
2022-09-09T14:54:29.741Z,1.88
2022-09-09T14:57:36.253Z,4.57
2022-09-09T15:00:42.337Z,2.78
2022-09-09T15:03:53.592Z,3.38
2022-09-09T15:06:59.840Z,2.67
2022-09-09T15:10:05.393Z,3.60
2022-09-09T15:13:09.988Z,3.88
2022-09-09T15:16:18.517Z,1.33
2022-09-09T15:19:23.348Z,2.50
2022-09-09T15:22:27.833Z,2.35
2022-09-09T15:25:33.403Z,1.77
2022-09-09T15:28:39.828Z,2.30
2022-09-09T15:31:44.900Z,2.08
2022-09-09T15:34:52.281Z,1.77
2022-09-09T15:37:58.345Z,2.55
2022-09-09T15:41:03.215Z,1.92
2022-09-09T15:44:08.934Z,3.00
2022-09-09T15:47:14.885Z,3.90
2022-09-09T15:50:19.650Z,2.90
2022-09-09T15:53:24.142Z,2.20
2022-09-09T15:56:33.824Z,3.15
2022-09-09T15:59:38.495Z,3.33
2022-09-09T16:02:43.636Z,1.60
2022-09-09T16:05:52.785Z,3.17
2022-09-09T16:08:59.307Z,2.05
2022-09-09T16:12:07.427Z,2.97
2022-09-09T16:15:12.187Z,4.75
2022-09-09T16:18:17.126Z,3.08
2022-09-09T16:21:30.684Z,3.30
2022-09-09T16:24:35.330Z,1.05
2022-09-09T16:27:39.995Z,1.92
2022-09-09T16:30:44.766Z,1.40
2022-09-09T16:33:51.468Z,0.88
2022-09-09T16:36:56.692Z,1.00
2022-09-09T16:40:04.356Z,1.50
2022-09-09T16:43:12.198Z,0.52
2022-09-09T16:46:20.436Z,1.20
2022-09-09T16:49:25.324Z,2.25
2022-09-09T16:52:29.701Z,2.13
2022-09-09T16:55:35.088Z,2.85
2022-09-09T16:58:39.592Z,1.17
2022-09-09T17:01:47.395Z,2.15
2022-09-09T17:04:52.068Z,1.15
2022-09-09T17:07:59.483Z,1.45
2022-09-09T17:11:05.323Z,2.17
2022-09-09T17:14:15.944Z,2.20
2022-09-09T17:17:31.704Z,4.70
2022-09-09T17:20:47.002Z,2.25
2022-09-09T17:23:53.507Z,1.67
2022-09-09T17:26:58.746Z,2.22
2022-09-09T17:30:03.950Z,2.17
2022-09-09T17:33:08.343Z,2.90
2022-09-09T17:36:20.820Z,1.77
2022-09-09T17:39:25.432Z,1.90
2022-09-09T17:42:30.917Z,3.30
2022-09-09T17:45:36.053Z,2.88
2022-09-09T17:48:42.942Z,3.40
2022-09-09T17:51:48.515Z,3.38
2022-09-09T17:54:54.745Z,2.42
2022-09-09T17:58:00.075Z,1.98
2022-09-09T18:01:12.804Z,1.63
2022-09-09T18:04:22.776Z,3.40
2022-09-09T18:07:27.293Z,2.20
2022-09-09T18:10:31.520Z,2.13
2022-09-09T18:13:36.544Z,3.17
2022-09-09T18:16:41.457Z,1.75
2022-09-09T18:19:46.095Z,2.83
2022-09-09T18:22:50.697Z,2.72
2022-09-09T18:25:55.167Z,2.80
2022-09-09T18:29:04.005Z,2.45
2022-09-09T18:32:11.136Z,3.03
2022-09-09T18:35:15.938Z,2.75
2022-09-09T18:38:20.764Z,3.70
2022-09-09T18:41:33.244Z,3.00
2022-09-09T18:44:38.066Z,2.28
2022-09-09T18:47:42.928Z,2.90
2022-09-09T18:50:47.882Z,2.90
2022-09-09T18:54:09.471Z,2.72
2022-09-09T18:57:14.110Z,3.05
2022-09-09T19:00:18.506Z,3.10
2022-09-09T19:03:26.242Z,2.75
2022-09-09T19:06:33.310Z,4.13
2022-09-09T19:09:37.918Z,3.97
2022-09-09T19:12:42.789Z,2.55
2022-09-09T19:15:47.695Z,3.55
2022-09-09T19:18:52.828Z,5.18
2022-09-09T19:21:58.069Z,2.78
2022-09-09T19:25:03.821Z,2.53
2022-09-09T19:28:08.641Z,1.70
2022-09-09T19:31:17.761Z,2.90
2022-09-09T19:34:22.583Z,2.20
2022-09-09T19:37:27.398Z,3.58
2022-09-09T19:40:31.825Z,2.53
2022-09-09T19:43:37.180Z,3.38
2022-09-09T19:46:43.769Z,3.05
2022-09-09T19:49:48.577Z,2.50
2022-09-09T19:52:55.245Z,3.60
2022-09-09T19:56:00.129Z,2.75
2022-09-09T19:59:07.240Z,3.47
2022-09-09T20:02:15.545Z,3.25
2022-09-09T20:05:21.165Z,3.75
2022-09-09T20:08:27.447Z,4.18
2022-09-09T20:11:32.647Z,3.95
2022-09-09T20:14:39.724Z,6.93
2022-09-09T20:17:45.060Z,6.13
2022-09-09T20:20:50.589Z,6.85
2022-09-09T20:23:56.016Z,4.03
2022-09-09T20:27:00.340Z,3.85
2022-09-09T20:30:05.960Z,3.30
2022-09-09T20:33:10.805Z,3.38
2022-09-09T20:36:20.310Z,3.80
2022-09-09T20:39:25.787Z,2.42
2022-09-09T20:42:30.527Z,2.70
2022-09-09T20:45:38.392Z,3.03
2022-09-09T20:48:43.100Z,3.03
2022-09-09T20:51:50.416Z,2.40
2022-09-09T20:54:54.956Z,3.10
2022-09-09T20:58:01.101Z,2.63
2022-09-09T21:01:07.570Z,3.70
2022-09-09T21:04:15.959Z,4.22
2022-09-09T21:07:20.586Z,2.78
2022-09-09T21:10:26.292Z,4.20
2022-09-09T21:13:39.445Z,3.60
2022-09-09T21:16:44.220Z,3.80
2022-09-09T21:19:49.102Z,3.25
2022-09-09T21:22:54.442Z,4.18
2022-09-09T21:25:58.993Z,4.18
2022-09-09T21:29:03.855Z,3.70
2022-09-09T21:32:08.477Z,3.10
2022-09-09T21:35:13.423Z,3.45
2022-09-09T21:38:22.286Z,3.63
2022-09-09T21:41:27.583Z,3.95
2022-09-09T21:44:32.479Z,3.85
2022-09-09T21:47:37.110Z,4.47
2022-09-09T21:50:47.225Z,3.88
2022-09-09T21:53:56.429Z,3.53
2022-09-09T21:57:01.571Z,3.80
2022-09-09T22:00:12.680Z,3.75
2022-09-09T22:03:17.574Z,4.28
2022-09-09T22:06:22.496Z,5.32
2022-09-09T22:09:27.365Z,3.78
2022-09-09T22:12:32.712Z,3.80
2022-09-09T22:15:42.518Z,4.22
2022-09-09T22:18:56.961Z,5.28
2022-09-09T22:22:01.782Z,3.53
2022-09-09T22:25:08.000Z,3.72
2022-09-09T22:28:12.655Z,5.07
2022-09-09T22:31:17.521Z,4.10
2022-09-09T22:34:22.316Z,3.90
2022-09-09T22:37:27.035Z,4.68
2022-09-09T22:40:37.863Z,3.45
2022-09-09T22:43:43.572Z,3.88
2022-09-09T22:46:48.872Z,4.18
2022-09-09T22:49:53.404Z,3.50
2022-09-09T22:52:57.771Z,4.32
2022-09-09T22:56:07.121Z,4.95
2022-09-09T22:59:12.087Z,5.80
2022-09-09T23:02:16.952Z,5.43
2022-09-09T23:05:22.552Z,4.93
2022-09-09T23:08:36.557Z,4.30
2022-09-09T23:14:47.389Z,3.55
2022-09-09T23:17:52.267Z,4.20
2022-09-09T23:21:01.113Z,4.32
2022-09-09T23:24:08.286Z,3.90
2022-09-09T23:27:12.958Z,5.18
2022-09-09T23:30:18.310Z,3.38
2022-09-09T23:33:23.187Z,4.22
2022-09-09T23:36:31.125Z,4.55
2022-09-09T23:39:35.697Z,3.22
2022-09-09T23:42:40.499Z,3.85
2022-09-09T23:45:44.950Z,3.25
2022-09-09T23:48:51.681Z,6.35
2022-09-09T23:51:56.059Z,3.63
2022-09-09T23:55:01.111Z,5.68
2022-09-09T23:58:05.854Z,4.03
